Data for 04/21/2007

Time Sea-Level Adjusted Pressure Absolute Pressure Temperature Relative Humidity Dew Point   
(mb) (inHg) (mb) (inHg) (C) (F) (%) (C) (F)
00:05 1013 29.91 842 24.86 1.7 35 77 -1.9 28.6
00:10 1013 29.91 842 24.86 1.7 35 75 -2.2 28
00:15 1013 29.91 842 24.86 2 35.6 73 -2.3 27.9
00:20 1013 29.91 842 24.86 2.1 35.9 74 -2.1 28.2
00:25 1013 29.91 842 24.86 1.9 35.5 74 -2.2 28
00:30 1013 29.91 842 24.86 1.8 35.2 75 -2.2 28
00:35 1013 29.91 842 24.86 1.6 34.9 75 -2.3 27.9
00:40 1013 29.91 842 24.86 1.5 34.7 76 -2.3 27.9
00:45 1013 29.91 842 24.86 1.4 34.6 76 -2.4 27.7
00:50 1013 29.91 842 24.86 1.5 34.6 76 -2.3 27.9
00:55 1013 29.91 842 24.86 1.4 34.5 76 -2.3 27.8
01:00 1013 29.91 842 24.86 1.4 34.5 76 -2.4 27.6
01:05 1013 29.91 842 24.86 1.4 34.5 76 -2.3 27.8
01:10 1013 29.91 842 24.86 1.2 34.2 77 -2.4 27.6
01:15 1013 29.91 842 24.86 1.3 34.3 77 -2.3 27.8
01:20 1013 29.91 842 24.86 1 33.8 79 -2.3 27.9
01:25 1013 29.91 842 24.86 0.8 33.4 79 -2.4 27.7
01:30 1013 29.91 842 24.86 0.8 33.4 79 -2.5 27.5
01:35 1013 29.91 842 24.86 0.8 33.4 79 -2.5 27.5
01:40 1013 29.91 842 24.86 0.9 33.5 77 -2.7 27.1
01:45 1013 29.91 842 24.86 1.1 33.9 76 -2.8 27
01:50 1013 29.91 842 24.86 1 33.9 76 -2.7 27.1
01:55 1013 29.91 842 24.86 1 33.8 76 -2.7 27.1
02:00 1013 29.91 842 24.86 0.9 33.6 77 -2.6 27.2
02:05 1013 29.91 842 24.86 0.8 33.5 77 -2.7 27.1
02:10 1013 29.91 842 24.86 0.9 33.6 77 -2.6 27.3
02:15 1013 29.91 842 24.86 0.9 33.6 76 -2.8 26.9
02:20 1013 29.91 842 24.86 1 33.8 76 -2.8 26.9
02:25 1013 29.91 842 24.86 1 33.7 76 -2.7 27.1
02:30 1013 29.91 842 24.86 0.6 33.2 79 -2.7 27.2
02:35 1013 29.91 842 24.86 0.3 32.6 81 -2.6 27.4
02:40 1013 29.91 842 24.86 0.1 32.2 81 -2.7 27.1
02:45 1013 29.91 842 24.86 0.2 32.4 80 -2.8 26.9
02:50 1013 29.91 842 24.86 0.5 32.8 78 -2.9 26.8
02:55 1013 29.91 842 24.86 0.8 33.4 77 -2.8 26.9
03:00 1013 29.91 842 24.86 0.9 33.6 76 -2.8 26.9
03:05 1013 29.91 842 24.86 1.2 34.2 75 -2.7 27.2
03:10 1013 29.91 842 24.86 1.1 34 74 -3 26.6
03:15 1013 29.91 842 24.86 1.3 34.3 73 -3 26.6
03:20 1013 29.91 842 24.86 1.2 34.1 74 -2.9 26.8
03:25 1013 29.91 842 24.86 1 33.8 76 -2.8 26.9
03:30 1013 29.91 842 24.86 0.6 33.2 78 -2.8 27
03:35 1013 29.91 842 24.86 0.5 32.8 79 -2.8 27
03:40 1013 29.91 842 24.86 0.3 32.6 79 -3 26.7
03:45 1013 29.91 842 24.86 0.3 32.6 79 -2.9 26.8
03:50 1013 29.91 842 24.86 0.3 32.5 79 -2.9 26.8
03:55 1013 29.91 842 24.86 0.1 32.2 80 -2.9 26.8
04:00 1013 29.91 842 24.86 0.2 32.4 78 -3.2 26.3
04:05 1013 29.91 842 24.86 0.4 32.7 78 -2.9 26.7
04:10 1013 29.91 842 24.86 0.4 32.8 78 -3 26.6
04:15 1013 29.91 842 24.86 0.5 32.9 77 -3 26.5
04:20 1013 29.91 842 24.86 0.7 33.2 76 -3.1 26.3
04:25 1013 29.91 842 24.86 0.7 33.3 75 -3.2 26.3
04:30 1013 29.91 842 24.86 0.8 33.4 75 -3.2 26.3
04:35 1013 29.91 842 24.86 1 33.8 73 -3.3 26.1
04:40 1013 29.91 842 24.86 1.2 34.1 73 -3.2 26.3
04:45 1013 29.91 842 24.86 0.9 33.6 76 -2.9 26.8
04:50 1013 29.91 842 24.86 0.5 33 77 -3 26.6
04:55 1013 29.91 842 24.86 0.3 32.5 79 -3 26.6
05:00 1013 29.91 842 24.86 0.3 32.5 77 -3.2 26.2
05:05 1013 29.91 842 24.86 0.2 32.3 79 -3.1 26.4
05:10 1013 29.91 842 24.86 0.1 32.3 78 -3.2 26.3
05:15 1013 29.91 842 24.86 0 32.1 79 -3.2 26.3
05:20 1013 29.91 842 24.86 -0.2 31.7 81 -3.1 26.5
05:25 1013 29.91 842 24.86 -0.3 31.5 82 -3 26.6
05:30 1013 29.91 842 24.86 -0.4 31.4 82 -3 26.6
05:35 1013 29.91 842 24.86 -0.4 31.4 82 -3 26.5
05:40 1013 29.91 842 24.86 -0.2 31.6 82 -3 26.5
05:45 1013 29.91 842 24.86 -0.2 31.7 81 -3 26.6
05:50 1013 29.91 842 24.86 -0 32 80 -3 26.6
05:55 1013 29.91 842 24.86 0.2 32.4 79 -3 26.6
06:00 1013 29.91 842 24.86 0.1 32.1 80 -3 26.6
06:05 1013 29.91 842 24.86 -0.2 31.6 81 -3.1 26.4
06:10 1013 29.91 842 24.86 -0.4 31.2 82 -3.2 26.3
06:15 1013 29.91 842 24.86 -0.6 30.9 82 -3.3 26.1
06:20 1013 29.91 842 24.86 -0.7 30.8 82 -3.3 26
06:25 1013 29.91 842 24.86 -0.6 30.9 82 -3.4 25.9
06:30 1013 29.91 842 24.86 -0.5 31.1 81 -3.4 26
06:35 1013 29.91 842 24.86 -0.5 31 81 -3.4 25.9
06:40 1013 29.91 842 24.86 -0.5 31.1 81 -3.4 25.8
06:45 1013 29.91 842 24.86 -0.4 31.2 80 -3.5 25.7
06:50 1013 29.91 842 24.86 -0.4 31.2 80 -3.5 25.6
06:55 1013 29.91 842 24.86 -0.4 31.3 80 -3.4 25.8
07:00 1013 29.91 842 24.86 -0.3 31.4 80 -3.4 25.8
07:05 1013 29.91 842 24.86 -0.4 31.4 79 -3.5 25.7
07:10 1013 29.91 843 24.89 -0.4 31.3 80 -3.4 25.9
07:15 1013 29.91 843 24.89 -0.4 31.3 79 -3.5 25.7
07:20 1013 29.91 843 24.89 -0.3 31.5 79 -3.4 25.9
07:25 1013 29.91 843 24.89 -0.2 31.7 79 -3.3 26
07:30 1013 29.91 843 24.89 -0.1 31.7 79 -3.4 25.9
07:35 1013 29.91 843 24.89 0 32 78 -3.4 25.9
07:40 1013 29.91 843 24.89 0.3 32.5 77 -3.3 26.1
07:45 1013 29.91 843 24.89 0.5 33 76 -3.2 26.2
07:50 1013 29.91 843 24.89 0.6 33.1 76 -3.2 26.3
07:55 1013 29.91 843 24.89 0.7 33.2 76 -3.2 26.3
08:00 1013 29.91 843 24.89 0.9 33.6 74 -3.2 26.3
08:05 1013 29.91 843 24.89 1 33.8 73 -3.3 26
08:10 1013 29.91 843 24.89 1.2 34.1 72 -3.3 26.1
08:15 1014 29.94 843 24.89 1.5 34.7 72 -3 26.6
08:20 1014 29.94 843 24.89 1.7 35.1 72 -2.8 27
08:25 1014 29.94 843 24.89 1.8 35.2 72 -2.8 26.9
08:30 1014 29.94 843 24.89 2 35.5 70 -3 26.7
08:35 1014 29.94 843 24.89 2.2 36 68 -3 26.5
08:40 1014 29.94 843 24.89 2.6 36.8 68 -2.7 27.1
08:45 1014 29.94 843 24.89 3.3 37.9 65 -2.6 27.3
08:50 1014 29.94 843 24.89 4 39.2 64 -2.3 27.9
08:55 1013 29.91 843 24.89 4.4 39.8 58 -3.2 26.2
09:00 1013 29.91 843 24.89 4.7 40.4 56 -3.3 26
09:05 1013 29.91 843 24.89 4.9 40.8 56 -3.1 26.4
09:10 1013 29.91 843 24.89 5.1 41.3 56 -3 26.6
09:15 1013 29.91 843 24.89 5.3 41.6 55 -3.1 26.5
09:20 1013 29.91 843 24.89 5.8 42.5 52 -3.3 26.1
09:25 1013 29.91 843 24.89 5.7 42.3 52 -3.3 26
09:30 1013 29.91 843 24.89 6.7 44 50 -3.1 26.5
09:35 1013 29.91 843 24.89 7.1 44.8 47 -3.3 26
09:40 1013 29.91 843 24.89 7.1 44.8 49 -2.9 26.7
09:45 1013 29.91 843 24.89 7.9 46.2 46 -3 26.5
09:50 1013 29.91 843 24.89 7.4 45.3 49 -2.7 27.1
09:55 1013 29.91 842 24.86 7.3 45.1 49 -2.8 27
10:00 1013 29.91 842 24.86 8 46.5 46 -3 26.6
10:05 1013 29.91 842 24.86 8.5 47.4 46 -2.3 27.9
10:10 1013 29.91 842 24.86 8.1 46.7 46 -2.8 27
10:15 1013 29.91 842 24.86 8.7 47.7 44 -2.7 27.1
10:20 1013 29.91 842 24.86 8.8 47.8 44 -2.7 27.1
10:25 1013 29.91 842 24.86 7.8 46 46 -3.1 26.4
10:30 1013 29.91 842 24.86 7.7 45.8 47 -3.1 26.5
10:35 1013 29.91 842 24.86 7.4 45.4 47 -3.3 26.1
10:40 1013 29.91 842 24.86 7.5 45.6 47 -3.2 26.3
10:45 1013 29.91 842 24.86 8.2 46.8 46 -2.7 27.1
10:50 1013 29.91 842 24.86 8.2 46.8 44 -3.2 26.2
10:55 1013 29.91 842 24.86 8.1 46.5 44 -3.3 26
11:00 1013 29.91 842 24.86 8.4 47.1 44 -3 26.6
11:05 1013 29.91 842 24.86 9.2 48.6 44 -2.4 27.7
11:10 1013 29.91 842 24.86 9.6 49.2 42 -2.7 27.1
11:15 1013 29.91 842 24.86 9.6 49.2 39 -3.5 25.7
11:20 1013 29.91 842 24.86 9.5 49.2 41 -2.9 26.8
11:25 1013 29.91 842 24.86 9.5 49 42 -2.7 27.1
11:30 1013 29.91 842 24.86 9.5 49.1 43 -2.4 27.7
11:35 1013 29.91 842 24.86 9.8 49.6 42 -2.4 27.6
11:40 1013 29.91 842 24.86 9.7 49.4 41 -3 26.6
11:45 1013 29.91 842 24.86 10.7 51.2 37 -3.3 26
11:50 1013 29.91 842 24.86 10.7 51.3 36 -3.8 25.2
11:55 1013 29.91 842 24.86 9.6 49.3 41 -2.9 26.8
12:00 1013 29.91 842 24.86 10.2 50.4 38 -3.4 26
12:05 1013 29.91 842 24.86 10.9 51.7 35 -3.7 25.3
12:10 1013 29.91 842 24.86 10.9 51.6 38 -2.8 27
12:15 1013 29.91 842 24.86 11.4 52.5 36 -2.9 26.7
12:20 1013 29.91 842 24.86 10.5 51 40 -2.4 27.7
12:25 1013 29.91 842 24.86 10.7 51.2 36 -3.6 25.5
12:30 1012 29.88 842 24.86 10.1 50.2 40 -2.9 26.8
12:35 1012 29.88 842 24.86 10.6 51.2 36 -3.6 25.5
12:40 1012 29.88 842 24.86 10.5 50.9 35 -4.3 24.2
12:45 1012 29.88 842 24.86 11.7 53.1 33 -3.8 25.2
12:50 1012 29.88 841 24.83 11.2 52.2 35 -3.7 25.3
12:55 1012 29.88 841 24.83 11.4 52.5 34 -4 24.8
13:00 1012 29.88 841 24.83 11.2 52.2 32 -4.9 23.1
13:05 1012 29.88 841 24.83 11.4 52.6 34 -3.9 24.9
13:10 1012 29.88 841 24.83 11.9 53.4 31 -4.6 23.7
13:15 1012 29.88 841 24.83 12.1 53.8 30 -4.9 23.2
13:20 1012 29.88 841 24.83 12 53.6 30 -5 23
13:25 1012 29.88 841 24.83 11.6 52.9 30 -5.5 22.1
13:30 1012 29.88 841 24.83 11.5 52.6 30 -5.3 22.5
13:35 1012 29.88 841 24.83 11.3 52.4 31 -5.1 22.8
13:40 1012 29.88 841 24.83 10.6 51.1 33 -5.1 22.8
13:45 1012 29.88 841 24.83 11 51.7 32 -5.1 22.8
13:50 1012 29.88 841 24.83 10.8 51.4 34 -4.2 24.4
13:55 1012 29.88 841 24.83 10.6 51 34 -4.5 23.9
14:00 1012 29.88 841 24.83 10.2 50.4 38 -3.6 25.6
14:05 1012 29.88 841 24.83 9.4 48.9 41 -3.2 26.3
14:10 1012 29.88 842 24.86 9.1 48.5 45 -2.3 27.9
14:15 1012 29.88 841 24.83 8.2 46.7 46 -2.6 27.3
14:20 1012 29.88 841 24.83 8.5 47.3 41 -4 24.7
14:25 1012 29.88 841 24.83 10.2 50.4 35 -4.4 24.1
14:30 1012 29.88 841 24.83 9.9 49.7 37 -4.3 24.3
14:35 1012 29.88 841 24.83 10.7 51.2 34 -4.4 24.2
14:40 1012 29.88 841 24.83 11.1 52 33 -4.4 24.2
14:45 1012 29.88 841 24.83 11.5 52.7 34 -3.9 25
14:50 1012 29.88 841 24.83 11.5 52.7 34 -3.9 25
14:55 1012 29.88 841 24.83 11.8 53.2 34 -3.5 25.8
15:00 1012 29.88 841 24.83 11.7 53.1 33 -4.2 24.5
15:05 1012 29.88 841 24.83 12.4 54.2 31 -4.4 24.1
15:10 1012 29.88 841 24.83 13.3 55.9 30 -4.1 24.6
15:15 1012 29.88 841 24.83 13.2 55.8 32 -3 26.6
15:20 1012 29.88 841 24.83 12.1 53.8 35 -2.9 26.7
15:25 1012 29.88 841 24.83 11.4 52.6 37 -2.8 27
15:30 1012 29.88 841 24.83 11.1 51.9 36 -3.3 26.1
15:35 1012 29.88 841 24.83 11.5 52.6 38 -2.2 28.1
15:40 1012 29.88 841 24.83 11.6 52.9 38 -2.3 27.8
15:45 1012 29.88 841 24.83 10.8 51.4 40 -2.3 27.9
15:50 1012 29.88 841 24.83 10.1 50.1 40 -3 26.6
15:55 1011 29.85 841 24.83 9.7 49.5 40 -3.1 26.5
16:00 1011 29.85 841 24.83 10 49.9 40 -2.9 26.7
16:05 1011 29.85 841 24.83 10.5 50.8 39 -3 26.6
16:10 1012 29.88 841 24.83 10.4 50.8 38 -3.2 26.2
16:15 1012 29.88 841 24.83 10.4 50.6 40 -2.8 27
16:20 1012 29.88 841 24.83 10.7 51.3 35 -4.2 24.4
16:25 1011 29.85 841 24.83 10.1 50.1 38 -3.6 25.6
16:30 1011 29.85 841 24.83 9.5 49.2 38 -3.9 24.9
16:35 1012 29.88 841 24.83 9.3 48.7 39 -3.9 24.9
16:40 1011 29.85 841 24.83 9.5 49.1 38 -4.1 24.5
16:45 1011 29.85 841 24.83 9.3 48.8 39 -4.1 24.7
16:50 1011 29.85 841 24.83 9.5 49 38 -4.1 24.6
16:55 1012 29.88 841 24.83 9.8 49.6 37 -4.1 24.6
17:00 1012 29.88 841 24.83 9.7 49.5 37 -4.1 24.6
17:05 1012 29.88 841 24.83 9.5 49.1 38 -4.3 24.3
17:10 1012 29.88 841 24.83 9.6 49.3 44 -2.1 28.3
17:15 1012 29.88 841 24.83 9.4 48.9 51 -0.2 31.6
17:20 1012 29.88 841 24.83 9.4 49 50 -0.6 31
17:25 1012 29.88 841 24.83 9.5 49.2 48 -0.8 30.5
17:30 1012 29.88 841 24.83 9.7 49.5 46 -1.5 29.4
17:35 1012 29.88 841 24.83 10.1 50.2 41 -2.6 27.3
17:40 1012 29.88 841 24.83 10.2 50.4 40 -2.7 27.1
17:45 1012 29.88 841 24.83 9.8 49.6 39 -3.5 25.7
17:50 1012 29.88 841 24.83 9.7 49.5 40 -3.1 26.5
17:55 1012 29.88 841 24.83 9.7 49.5 40 -3.1 26.3
18:00 1012 29.88 841 24.83 9.6 49.3 47 -1.1 29.9
18:05 1012 29.88 841 24.83 9.4 48.9 48 -1.1 29.9
18:10 1012 29.88 841 24.83 9.2 48.5 47 -1.5 29.3
18:15 1012 29.88 841 24.83 9.5 49.1 45 -1.9 28.5
18:20 1012 29.88 841 24.83 9.6 49.2 47 -1.3 29.7
18:25 1012 29.88 841 24.83 9.7 49.4 49 -0.6 30.9
18:30 1012 29.88 841 24.83 9.6 49.2 49 -0.5 31.1
18:35 1012 29.88 841 24.83 9.2 48.6 50 -0.6 30.9
18:40 1012 29.88 841 24.83 9 48.1 50 -0.9 30.4
18:45 1012 29.88 841 24.83 8.9 48 49 -1.2 29.8
18:50 1012 29.88 841 24.83 9 48.2 48 -1.5 29.3
18:55 1012 29.88 841 24.83 9 48.2 47 -1.6 29.1
19:00 1012 29.88 841 24.83 9 48.1 48 -1.4 29.4
19:05 1012 29.88 841 24.83 9.1 48.3 45 -2.1 28.2
19:10 1012 29.88 841 24.83 8.9 48.1 46 -1.9 28.5
19:15 1012 29.88 841 24.83 8.7 47.6 47 -1.9 28.6
19:20 1012 29.88 841 24.83 8.6 47.4 51 -0.9 30.4
19:25 1012 29.88 841 24.83 8.3 47 52 -1 30.2
19:30 1012 29.88 841 24.83 8.3 46.9 54 -0.4 31.3
19:35 1012 29.88 841 24.83 8.1 46.6 55 -0.3 31.4
19:40 1012 29.88 841 24.83 8.1 46.5 53 -0.9 30.4
19:45 1012 29.88 841 24.83 8 46.3 55 -0.5 31.1
19:50 1012 29.88 841 24.83 7.8 46 56 -0.5 31.1
19:55 1012 29.88 841 24.83 7.6 45.7 57 -0.2 31.6
20:00 1012 29.88 841 24.83 7.4 45.3 59 -0.2 31.7
20:05 1012 29.88 841 24.83 7.3 45.2 58 -0.3 31.5
20:10 1012 29.88 841 24.83 7.2 45 58 -0.3 31.4
20:15 1012 29.88 841 24.83 7.1 44.8 58 -0.7 30.8
20:20 1012 29.88 841 24.83 7.1 44.8 59 -0.3 31.4
20:25 1012 29.88 841 24.83 7.1 44.8 59 -0.3 31.5
20:30 1012 29.88 841 24.83 7.1 44.8 60 -0.2 31.6
20:35 1012 29.88 841 24.83 7 44.5 60 -0.2 31.6
20:40 1012 29.88 841 24.83 6.8 44.2 61 -0.3 31.5
20:45 1012 29.88 841 24.83 6.7 44 61 -0.3 31.5
20:50 1012 29.88 842 24.86 6.4 43.5 65 0.3 32.6
20:55 1012 29.88 842 24.86 6 42.8 66 0.1 32.1
21:00 1012 29.88 842 24.86 5.9 42.6 65 -0.1 31.8
21:05 1013 29.91 842 24.86 5.8 42.4 66 -0.1 31.9
21:10 1013 29.91 842 24.86 5.7 42.2 66 -0.3 31.5
21:15 1013 29.91 842 24.86 5.6 42 66 -0.2 31.6
21:20 1013 29.91 842 24.86 5.5 42 66 -0.4 31.3
21:25 1013 29.91 842 24.86 5.6 42 64 -0.6 31
21:30 1013 29.91 842 24.86 5.7 42.2 65 -0.4 31.3
21:35 1013 29.91 842 24.86 5.6 42 66 -0.4 31.3
21:40 1013 29.91 842 24.86 5.4 41.8 66 -0.5 31.2
21:45 1013 29.91 842 24.86 5.4 41.8 65 -0.6 31
21:50 1013 29.91 842 24.86 5.3 41.5 65 -0.7 30.7
21:55 1013 29.91 842 24.86 5.2 41.3 65 -0.8 30.5
22:00 1013 29.91 842 24.86 5.2 41.3 64 -1 30.2
22:05 1013 29.91 842 24.86 5.1 41.2 65 -0.9 30.4
22:10 1013 29.91 842 24.86 4.9 40.7 66 -1 30.3
22:15 1013 29.91 842 24.86 4.8 40.6 66 -1 30.2
22:20 1013 29.91 842 24.86 4.6 40.3 67 -1 30.3
22:25 1013 29.91 842 24.86 4.5 40 67 -1.1 30.1
22:30 1013 29.91 842 24.86 4.4 40 67 -1.2 29.9
22:35 1013 29.91 842 24.86 4.3 39.7 66 -1.5 29.3
22:40 1013 29.91 842 24.86 4.2 39.6 66 -1.6 29.2
22:45 1013 29.91 842 24.86 4.4 39.8 65 -1.6 29.2
22:50 1013 29.91 842 24.86 4.5 40.1 65 -1.5 29.3
22:55 1013 29.91 842 24.86 4.4 40 64 -1.7 29
23:00 1013 29.91 842 24.86 4.4 39.9 66 -1.5 29.4
23:05 1013 29.91 842 24.86 4.4 39.9 66 -1.5 29.4
23:10 1013 29.91 842 24.86 4.2 39.6 67 -1.4 29.6
23:15 1013 29.91 842 24.86 4.1 39.4 66 -1.7 29
23:20 1013 29.91 842 24.86 4.1 39.4 66 -1.6 29.1
23:25 1013 29.91 842 24.86 4.1 39.4 67 -1.5 29.3
23:30 1013 29.91 842 24.86 4.2 39.5 66 -1.7 29
23:35 1013 29.91 842 24.86 4.2 39.5 66 -1.6 29.2
23:40 1013 29.91 842 24.86 4 39.2 66 -1.7 28.9
23:45 1013 29.91 842 24.86 3.9 39 67 -1.7 29
23:50 1013 29.91 842 24.86 3.8 38.8 66 -2 28.4
23:55 1013 29.91 842 24.86 3.8 38.8 65 -2.1 28.1
24:00 1013 29.91 842 24.86 3.7 38.7 66 -2.1 28.2